Time;durP1;ratioP1;P1;durP2;ratioP2;P2;SDS_P1;SDS_P2;PMS_P1;PMS_P2;Temp;Humidity;BMP_temperature;BMP_pressure;BME280_temperature;BME280_humidity;BME280_pressure;Samples;Min_cycle;Max_cycle;Signal;HPM_P1;HPM_P2
2021/12/22 00:00:40;;;;;;;3.85;1.83;;;-4.10;48.70;;;;;;5128482;27;34448;-77
2021/12/22 00:03:08;;;;;;;3.13;1.90;;;-4.10;48.70;;;;;;5127917;27;34216;-77
2021/12/22 00:05:43;;;;;;;2.50;1.90;;;-4.10;48.90;;;;;;5126929;27;34422;-77
2021/12/22 00:08:10;;;;;;;2.45;1.90;;;-4.20;49.30;;;;;;5127561;27;34237;-76
2021/12/22 00:10:36;;;;;;;3.53;1.83;;;-4.20;49.40;;;;;;5128607;27;34190;-77
2021/12/22 00:13:02;;;;;;;2.53;1.98;;;-4.20;49.40;;;;;;5126533;27;36640;-76
2021/12/22 00:15:29;;;;;;;2.13;1.60;;;-4.20;49.30;;;;;;5109765;27;34287;-76
2021/12/22 00:17:56;;;;;;;3.47;2.08;;;-4.20;49.30;;;;;;5126394;27;34252;-76
2021/12/22 00:20:22;;;;;;;3.13;1.50;;;-4.20;49.30;;;;;;5109614;27;34420;-76
2021/12/22 00:22:48;;;;;;;2.80;1.93;;;-4.20;49.30;;;;;;5126794;27;36270;-76
2021/12/22 00:25:15;;;;;;;1.70;1.60;;;-4.30;49.00;;;;;;5092484;27;34198;-76
2021/12/22 00:27:41;;;;;;;2.78;1.50;;;-4.30;48.80;;;;;;5126433;27;34201;-76
2021/12/22 00:30:09;;;;;;;1.90;1.52;;;-4.30;48.70;;;;;;5126501;27;34139;-76
2021/12/22 00:32:37;;;;;;;2.77;1.77;;;-4.30;48.90;;;;;;5108674;27;35653;-76
2021/12/22 00:35:04;;;;;;;1.58;1.48;;;-4.40;48.90;;;;;;5127298;27;34055;-77
2021/12/22 00:37:32;;;;;;;3.50;2.10;;;-4.40;49.20;;;;;;5092437;27;34167;-76
2021/12/22 00:39:58;;;;;;;2.40;1.60;;;-4.40;49.40;;;;;;5109530;27;34082;-76
2021/12/22 00:42:25;;;;;;;4.33;1.90;;;-4.40;49.30;;;;;;5108971;27;34328;-76
2021/12/22 00:44:54;;;;;;;2.27;1.87;;;-4.40;49.20;;;;;;5125923;27;34390;-76
2021/12/22 00:47:24;;;;;;;2.27;1.90;;;-4.40;49.20;;;;;;5107925;27;34166;-76
2021/12/22 00:49:50;;;;;;;2.23;1.83;;;-4.40;49.10;;;;;;5093029;27;34097;-76
2021/12/22 00:52:17;;;;;;;3.50;1.90;;;-4.50;49.00;;;;;;5125294;27;36211;-76
2021/12/22 00:54:43;;;;;;;3.30;1.63;;;-4.50;49.20;;;;;;5125908;27;34190;-76
2021/12/22 00:57:10;;;;;;;4.00;1.60;;;-4.50;49.40;;;;;;5125566;27;34387;-76
2021/12/22 00:59:37;;;;;;;1.97;1.67;;;-4.50;49.30;;;;;;5127284;27;34582;-76
2021/12/22 01:02:06;;;;;;;2.47;2.10;;;-4.50;49.10;;;;;;5126311;27;36453;-76
2021/12/22 01:04:32;;;;;;;3.70;1.83;;;-4.50;49.10;;;;;;5126123;27;34182;-76
2021/12/22 01:06:59;;;;;;;2.37;1.97;;;-4.50;49.30;;;;;;5125475;27;33813;-76
2021/12/22 01:09:25;;;;;;;1.73;1.60;;;-4.50;49.10;;;;;;5126031;27;34141;-76
2021/12/22 01:11:51;;;;;;;4.37;1.90;;;-4.50;49.00;;;;;;5125428;27;35650;-76
2021/12/22 01:14:18;;;;;;;4.13;2.00;;;-4.60;49.10;;;;;;5127247;27;34181;-76
2021/12/22 01:16:48;;;;;;;3.33;1.45;;;-4.50;49.20;;;;;;5126973;27;34219;-76
2021/12/22 01:19:22;;;;;;;2.05;1.85;;;-4.60;48.80;;;;;;5111209;27;34114;-76
2021/12/22 01:21:58;;;;;;;2.28;1.60;;;-4.60;48.90;;;;;;5087628;28;35653;-76
2021/12/22 01:24:33;;;;;;;3.67;1.67;;;-4.60;48.70;;;;;;5104753;28;34335;-76
2021/12/22 01:27:07;;;;;;;2.17;1.42;;;-4.70;49.00;;;;;;5089756;28;34332;-76
2021/12/22 01:29:35;;;;;;;2.47;1.60;;;-4.60;48.90;;;;;;5089076;28;34193;-76
2021/12/22 01:32:02;;;;;;;2.40;1.83;;;-4.60;48.90;;;;;;5104989;28;36346;-76
2021/12/22 01:34:29;;;;;;;1.90;1.53;;;-4.70;48.80;;;;;;5088291;28;34149;-76
2021/12/22 01:36:55;;;;;;;5.03;1.90;;;-4.70;48.90;;;;;;5104811;28;34001;-76
2021/12/22 01:39:21;;;;;;;2.17;1.57;;;-4.70;49.00;;;;;;5105014;28;34561;-76
2021/12/22 01:41:48;;;;;;;2.00;1.57;;;-4.70;49.10;;;;;;5104552;28;35756;-76
2021/12/22 01:44:35;;;;;;;3.07;2.10;;;-4.70;49.00;;;;;;5106441;28;34289;-76
2021/12/22 01:49:52;;;;;;;4.13;1.73;;;-4.70;49.40;;;;;;5090679;28;34155;-76
2021/12/22 01:52:20;;;;;;;2.83;2.07;;;-4.70;49.20;;;;;;5070800;28;36294;-76
2021/12/22 01:55:04;;;;;;;1.80;1.50;;;-4.70;48.60;;;;;;5087725;28;34222;-76
2021/12/22 01:57:32;;;;;;;2.67;1.60;;;-4.70;48.40;;;;;;5104045;27;34214;-76
2021/12/22 02:00:01;;;;;;;2.87;1.57;;;-4.80;48.30;;;;;;5104360;28;34417;-76
2021/12/22 02:02:28;;;;;;;4.07;1.67;;;-4.80;48.40;;;;;;5104893;28;34257;-76
2021/12/22 02:04:55;;;;;;;2.50;1.87;;;-4.80;48.40;;;;;;5069963;28;34193;-76
2021/12/22 02:07:21;;;;;;;5.33;1.90;;;-4.90;48.80;;;;;;5104430;28;34183;-76
2021/12/22 02:10:03;;;;;;;4.17;1.63;;;-4.90;49.20;;;;;;5088377;28;34373;-76
2021/12/22 02:12:33;;;;;;;2.87;1.70;;;-4.90;49.20;;;;;;5089907;28;36666;-76
2021/12/22 02:15:00;;;;;;;2.60;1.93;;;-4.90;49.30;;;;;;5088284;28;34191;-76
2021/12/22 02:17:27;;;;;;;3.23;1.40;;;-4.90;49.30;;;;;;5087153;28;34125;-76
2021/12/22 02:19:54;;;;;;;3.00;1.33;;;-4.90;49.20;;;;;;5105247;27;34285;-76
2021/12/22 02:22:20;;;;;;;4.10;1.70;;;-4.90;49.40;;;;;;5120041;27;36555;-76
2021/12/22 02:24:49;;;;;;;2.97;2.10;;;-4.90;49.30;;;;;;5104140;28;34350;-76
2021/12/22 02:27:26;;;;;;;2.40;1.77;;;-4.90;49.40;;;;;;5120643;27;34289;-76
2021/12/22 02:29:58;;;;;;;3.73;2.00;;;-4.90;49.20;;;;;;5088046;28;34032;-77
2021/12/22 02:32:52;;;;;;;2.33;1.77;;;-4.90;49.20;;;;;;5120917;27;35985;-77
2021/12/22 02:35:11;;;;;;;1.47;1.37;;;-4.90;49.30;;;;;;5103304;28;34138;-76
2021/12/22 02:37:44;;;;;;;2.97;1.60;;;-4.90;49.00;;;;;;5087177;28;34103;-76
2021/12/22 02:40:14;;;;;;;4.10;1.98;;;-4.90;48.80;;;;;;5071243;28;34656;-76
2021/12/22 02:42:42;;;;;;;2.63;1.80;;;-5.00;48.80;;;;;;5087317;28;34410;-76
2021/12/22 02:45:15;;;;;;;11.17;2.40;;;-5.00;48.70;;;;;;5104495;28;34153;-76
2021/12/22 02:47:41;;;;;;;3.07;1.50;;;-5.00;48.60;;;;;;5105626;28;34208;-76
2021/12/22 02:50:09;;;;;;;4.17;1.60;;;-5.00;48.70;;;;;;5104799;28;34094;-76
2021/12/22 02:52:49;;;;;;;6.03;1.87;;;-5.00;48.70;;;;;;5070186;28;35779;-76
2021/12/22 02:55:15;;;;;;;2.23;1.53;;;-5.00;48.50;;;;;;5104686;28;34524;-76
2021/12/22 02:57:46;;;;;;;2.23;1.97;;;-5.10;48.60;;;;;;5102781;28;34532;-76
2021/12/22 03:03:08;;;;;;;4.23;1.80;;;-5.10;49.10;;;;;;5088537;28;34229;-76
2021/12/22 03:05:36;;;;;;;2.90;1.67;;;-5.10;49.30;;;;;;5119988;27;34206;-76
2021/12/22 03:08:03;;;;;;;1.87;1.77;;;-5.10;49.20;;;;;;5104200;28;34123;-76
2021/12/22 03:10:29;;;;;;;3.47;2.13;;;-5.10;48.90;;;;;;5085281;28;34105;-76
2021/12/22 03:13:01;;;;;;;3.00;1.90;;;-5.10;49.00;;;;;;5102875;28;36880;-77
2021/12/22 03:15:27;;;;;;;1.97;1.70;;;-5.10;49.30;;;;;;5104817;28;34156;-76
2021/12/22 03:17:53;;;;;;;2.13;1.63;;;-5.10;49.40;;;;;;5102956;27;34498;-76
2021/12/22 03:20:19;;;;;;;2.20;2.00;;;-5.10;49.00;;;;;;5103929;28;34293;-76
2021/12/22 03:22:47;;;;;;;5.17;1.73;;;-5.10;49.10;;;;;;5104241;28;34330;-76
2021/12/22 03:25:15;;;;;;;3.07;2.00;;;-5.10;49.10;;;;;;5119978;27;34173;-76
2021/12/22 03:27:46;;;;;;;2.47;1.47;;;-5.10;49.30;;;;;;5119732;27;34458;-76
2021/12/22 03:30:14;;;;;;;2.17;1.70;;;-5.10;48.90;;;;;;5086478;28;34250;-76
2021/12/22 03:32:40;;;;;;;2.90;1.87;;;-5.10;48.90;;;;;;5085217;28;35667;-76
2021/12/22 03:35:07;;;;;;;2.53;1.63;;;-5.10;48.60;;;;;;5103608;28;34261;-76
2021/12/22 03:37:33;;;;;;;2.00;1.80;;;-5.10;48.60;;;;;;5102795;28;34266;-76
2021/12/22 03:39:59;;;;;;;10.27;1.87;;;-5.20;48.70;;;;;;5104282;28;34168;-76
2021/12/22 03:42:25;;;;;;;3.25;1.85;;;-5.20;48.60;;;;;;5084447;28;36157;-76
2021/12/22 03:44:51;;;;;;;2.00;1.80;;;-5.20;48.80;;;;;;5102477;28;34509;-76
2021/12/22 03:47:17;;;;;;;2.97;2.00;;;-5.20;49.00;;;;;;5102981;28;34113;-76
2021/12/22 03:49:43;;;;;;;2.97;1.52;;;-5.20;49.40;;;;;;5102315;28;34411;-76
2021/12/22 03:52:09;;;;;;;2.57;1.90;;;-5.20;49.20;;;;;;5102352;28;35597;-76
2021/12/22 03:54:35;;;;;;;4.90;2.10;;;-5.20;48.90;;;;;;5085463;28;34253;-76
2021/12/22 03:57:01;;;;;;;5.00;2.37;;;-5.20;48.80;;;;;;5102252;28;34322;-77
2021/12/22 03:59:27;;;;;;;3.00;2.20;;;-5.20;48.90;;;;;;5085260;28;34510;-76
2021/12/22 04:01:54;;;;;;;3.13;1.87;;;-5.20;48.70;;;;;;5101972;27;34549;-76
2021/12/22 04:04:20;;;;;;;3.13;2.07;;;-5.20;48.70;;;;;;5119099;27;34087;-76
2021/12/22 04:06:48;;;;;;;1.93;1.70;;;-5.20;49.20;;;;;;5085325;28;34126;-76
2021/12/22 04:09:15;;;;;;;4.63;2.53;;;-5.20;49.30;;;;;;5085091;28;34356;-76
2021/12/22 04:11:44;;;;;;;6.40;1.70;;;-5.20;49.10;;;;;;5085376;28;35179;-76
2021/12/22 04:14:11;;;;;;;4.37;2.00;;;-5.20;48.70;;;;;;5102313;28;34048;-76
2021/12/22 04:16:37;;;;;;;2.83;2.00;;;-5.30;48.30;;;;;;5084957;28;34401;-76
2021/12/22 04:19:04;;;;;;;2.50;1.73;;;-5.30;48.40;;;;;;5085149;28;34423;-76
2021/12/22 04:21:30;;;;;;;2.53;1.80;;;-5.30;48.10;;;;;;5084729;28;35618;-76
2021/12/22 04:23:57;;;;;;;3.93;2.23;;;-5.30;48.80;;;;;;5071623;28;34223;-76
2021/12/22 04:26:24;;;;;;;3.83;2.00;;;-5.30;48.60;;;;;;5088534;28;34390;-77
2021/12/22 04:28:50;;;;;;;1.97;1.80;;;-5.40;48.50;;;;;;5104635;28;34165;-76
2021/12/22 04:31:16;;;;;;;4.60;2.17;;;-5.30;48.80;;;;;;5105607;28;34709;-76
2021/12/22 04:33:42;;;;;;;2.93;1.97;;;-5.40;48.80;;;;;;5089803;28;34249;-76
2021/12/22 04:36:08;;;;;;;3.13;2.07;;;-5.40;48.80;;;;;;5104826;28;34300;-76
2021/12/22 04:38:34;;;;;;;3.40;2.07;;;-5.40;48.50;;;;;;5104738;28;34191;-76
2021/12/22 04:41:01;;;;;;;2.87;2.03;;;-5.40;48.60;;;;;;5104200;28;35718;-77
2021/12/22 04:43:27;;;;;;;3.67;2.60;;;-5.40;48.80;;;;;;5087312;28;34169;-76
2021/12/22 04:45:53;;;;;;;3.93;2.57;;;-5.40;48.90;;;;;;5104624;28;34266;-76
2021/12/22 04:48:19;;;;;;;3.27;1.70;;;-5.40;48.60;;;;;;5071081;28;34198;-77
2021/12/22 04:50:46;;;;;;;3.17;1.93;;;-5.50;48.40;;;;;;5104211;28;35994;-77
2021/12/22 04:53:18;;;;;;;4.23;2.40;;;-5.50;48.10;;;;;;5104201;28;34140;-76
2021/12/22 04:55:44;;;;;;;4.50;2.10;;;-5.50;48.00;;;;;;5088067;28;34246;-76
2021/12/22 04:58:10;;;;;;;2.90;2.23;;;-5.50;48.40;;;;;;5070236;28;34160;-76
2021/12/22 05:00:38;;;;;;;2.37;1.57;;;-5.50;48.40;;;;;;5121644;27;36100;-76
2021/12/22 05:03:04;;;;;;;2.57;2.30;;;-5.50;48.60;;;;;;5087155;28;34226;-76
2021/12/22 05:05:31;;;;;;;2.33;1.80;;;-5.50;48.80;;;;;;5104663;28;34197;-76
2021/12/22 05:07:58;;;;;;;2.33;1.80;;;-5.60;48.40;;;;;;5104962;28;34141;-76
2021/12/22 05:10:25;;;;;;;2.00;1.53;;;-5.60;48.70;;;;;;5103890;28;35971;-76
2021/12/22 05:12:52;;;;;;;2.93;2.20;;;-5.60;49.20;;;;;;5087500;28;34314;-76
2021/12/22 05:15:21;;;;;;;5.40;2.30;;;-5.50;49.20;;;;;;5103969;28;34146;-76
2021/12/22 05:18:11;;;;;;;2.83;1.90;;;-5.60;49.00;;;;;;5121219;27;34196;-76
2021/12/22 05:20:34;;;;;;;2.00;1.73;;;-5.50;48.80;;;;;;5090103;28;35311;-76
2021/12/22 05:23:00;;;;;;;2.33;1.90;;;-5.60;48.60;;;;;;5087297;28;34271;-76
2021/12/22 05:25:26;;;;;;;2.00;1.70;;;-5.50;48.70;;;;;;5087332;28;34350;-76
2021/12/22 05:27:52;;;;;;;4.00;2.07;;;-5.60;49.10;;;;;;5103928;28;34240;-76
2021/12/22 05:30:18;;;;;;;2.60;2.00;;;-5.60;49.40;;;;;;5103165;28;36246;-76
2021/12/22 05:32:46;;;;;;;3.93;2.23;;;-5.50;49.10;;;;;;5086692;28;34156;-76
2021/12/22 05:35:12;;;;;;;2.20;1.57;;;-5.50;48.70;;;;;;5087397;28;34206;-76
2021/12/22 05:37:40;;;;;;;2.17;1.40;;;-5.50;48.50;;;;;;5121265;27;34019;-76
2021/12/22 05:40:08;;;;;;;2.73;2.27;;;-5.60;48.50;;;;;;5103205;28;35905;-76
2021/12/22 05:42:34;;;;;;;2.97;2.20;;;-5.50;48.70;;;;;;5122057;27;34296;-76
2021/12/22 05:45:01;;;;;;;3.77;1.93;;;-5.60;48.40;;;;;;5086860;28;34242;-76
2021/12/22 05:47:27;;;;;;;2.50;1.93;;;-5.60;48.70;;;;;;5104531;28;34166;-76
2021/12/22 05:49:53;;;;;;;2.30;1.80;;;-5.60;48.40;;;;;;5105104;28;34563;-76
2021/12/22 05:52:19;;;;;;;3.37;1.87;;;-5.60;48.00;;;;;;5103833;28;34387;-76
2021/12/22 05:54:45;;;;;;;2.27;1.70;;;-5.70;48.20;;;;;;5122621;27;34259;-76
2021/12/22 05:57:11;;;;;;;2.77;2.47;;;-5.60;48.50;;;;;;5112775;27;34142;-76
2021/12/22 05:59:37;;;;;;;6.90;2.00;;;-5.70;48.30;;;;;;5128589;27;35895;-77
2021/12/22 06:02:04;;;;;;;2.60;1.67;;;-5.70;47.90;;;;;;5128135;27;34215;-76
2021/12/22 06:04:30;;;;;;;1.73;1.60;;;-5.70;48.00;;;;;;5128198;27;34199;-76
2021/12/22 06:06:56;;;;;;;2.23;1.90;;;-5.80;47.90;;;;;;5111227;27;34169;-76
2021/12/22 06:09:22;;;;;;;2.90;2.00;;;-5.80;48.20;;;;;;5145895;27;35354;-76
2021/12/22 06:11:48;;;;;;;2.70;2.22;;;-5.80;48.40;;;;;;5128158;27;34365;-76
2021/12/22 06:14:15;;;;;;;6.40;2.40;;;-5.80;48.50;;;;;;5146217;27;34410;-76
2021/12/22 06:16:41;;;;;;;1.90;1.27;;;-5.80;48.50;;;;;;5127803;27;34214;-76
2021/12/22 06:19:09;;;;;;;5.87;2.20;;;-5.80;48.40;;;;;;5111231;27;35594;-77
2021/12/22 06:21:35;;;;;;;2.33;2.07;;;-5.80;48.50;;;;;;5129029;27;34332;-76
2021/12/22 06:24:02;;;;;;;4.03;2.20;;;-5.80;48.50;;;;;;5128719;27;34187;-77
2021/12/22 06:26:28;;;;;;;3.20;1.77;;;-5.80;49.30;;;;;;5128725;27;34340;-76
2021/12/22 06:28:54;;;;;;;4.17;2.00;;;-5.80;48.80;;;;;;5134110;27;34431;-76
2021/12/22 06:31:20;;;;;;;1.47;1.30;;;-5.80;48.90;;;;;;5116041;27;34268;-76
2021/12/22 06:33:46;;;;;;;2.20;1.83;;;-5.80;48.70;;;;;;5104790;28;34249;-76
2021/12/22 06:36:12;;;;;;;3.57;2.00;;;-5.80;48.70;;;;;;5086780;28;34394;-76
2021/12/22 06:38:39;;;;;;;3.53;2.17;;;-5.80;48.70;;;;;;5121568;27;36336;-76
2021/12/22 06:41:06;;;;;;;6.07;2.23;;;-5.80;48.60;;;;;;5121608;27;34116;-76
2021/12/22 06:43:32;;;;;;;2.57;1.97;;;-5.80;48.80;;;;;;5121450;27;34382;-76
2021/12/22 06:45:58;;;;;;;2.40;2.07;;;-5.90;48.70;;;;;;5105117;28;34069;-76
2021/12/22 06:48:25;;;;;;;5.50;1.90;;;-5.80;48.60;;;;;;5121610;27;36667;-76
2021/12/22 06:50:51;;;;;;;2.43;1.77;;;-5.80;49.00;;;;;;5105330;28;34144;-76
2021/12/22 06:53:17;;;;;;;2.67;1.97;;;-5.80;48.90;;;;;;5087089;28;34108;-76
2021/12/22 06:55:43;;;;;;;3.80;2.27;;;-5.80;48.40;;;;;;5087420;28;34347;-76
2021/12/22 06:58:09;;;;;;;4.40;2.03;;;-5.80;48.20;;;;;;5104931;28;34059;-76
2021/12/22 07:00:36;;;;;;;2.43;1.70;;;-5.90;48.20;;;;;;5086462;28;34336;-76
2021/12/22 07:03:21;;;;;;;3.13;1.57;;;-5.90;48.30;;;;;;5070527;28;34249;-76
2021/12/22 07:05:47;;;;;;;1.87;1.53;;;-5.90;48.50;;;;;;5105893;28;34445;-76
2021/12/22 07:08:13;;;;;;;4.87;2.47;;;-5.90;48.60;;;;;;5120924;27;35608;-76
2021/12/22 07:10:39;;;;;;;4.10;2.27;;;-5.90;48.70;;;;;;5121028;27;34218;-77
2021/12/22 07:13:06;;;;;;;2.87;1.90;;;-5.90;48.30;;;;;;5121063;27;34254;-76
2021/12/22 07:15:33;;;;;;;2.23;1.57;;;-5.90;47.90;;;;;;5070800;28;34452;-77
2021/12/22 07:18:01;;;;;;;4.83;1.50;;;-5.90;48.50;;;;;;5120682;27;36537;-77
2021/12/22 07:20:27;;;;;;;6.67;2.83;;;-5.90;48.30;;;;;;5071253;28;34373;-76
2021/12/22 07:22:53;;;;;;;2.63;2.43;;;-5.90;48.20;;;;;;5070190;28;34283;-76
2021/12/22 07:25:23;;;;;;;3.03;1.70;;;-5.90;48.40;;;;;;5070274;28;34221;-76
2021/12/22 07:27:49;;;;;;;2.10;1.77;;;-6.00;48.10;;;;;;5104898;28;34822;-76
2021/12/22 07:30:15;;;;;;;4.77;2.70;;;-6.00;48.00;;;;;;5070198;28;34222;-76
2021/12/22 07:32:41;;;;;;;1.93;1.70;;;-6.00;48.30;;;;;;5087074;28;34280;-76
2021/12/22 07:35:24;;;;;;;9.77;2.13;;;-6.00;48.20;;;;;;5087149;28;34521;-76
2021/12/22 07:38:01;;;;;;;2.00;1.70;;;-6.00;47.90;;;;;;5069771;28;36306;-76
2021/12/22 07:40:27;;;;;;;3.43;1.93;;;-6.00;48.30;;;;;;5105794;28;34186;-77
2021/12/22 07:42:54;;;;;;;3.10;2.37;;;-6.00;49.30;;;;;;5070412;28;34148;-76
2021/12/22 07:45:20;;;;;;;2.90;2.17;;;-6.00;48.40;;;;;;5105347;28;34145;-76
2021/12/22 07:47:46;;;;;;;3.57;2.10;;;-5.90;48.60;;;;;;5070055;28;35962;-76
2021/12/22 07:50:12;;;;;;;4.33;2.83;;;-5.90;48.70;;;;;;5069787;28;34034;-76
2021/12/22 07:52:38;;;;;;;3.00;1.90;;;-5.90;48.70;;;;;;5087455;28;34419;-77
2021/12/22 07:55:05;;;;;;;4.07;2.57;;;-5.90;48.80;;;;;;5087127;27;34337;-77
2021/12/22 07:57:31;;;;;;;2.43;1.87;;;-5.80;48.60;;;;;;5090589;28;34426;-76
2021/12/22 07:59:57;;;;;;;2.20;1.63;;;-5.80;48.80;;;;;;5109342;28;34433;-77
2021/12/22 08:02:23;;;;;;;4.37;2.53;;;-5.70;48.90;;;;;;5073958;28;34258;-77
2021/12/22 08:04:49;;;;;;;2.77;1.83;;;-5.70;49.10;;;;;;5089988;28;34075;-76
2021/12/22 08:07:15;;;;;;;3.03;2.03;;;-5.60;48.90;;;;;;5072884;28;35773;-77
2021/12/22 08:09:41;;;;;;;3.40;2.30;;;-5.60;49.30;;;;;;5089513;28;34082;-77
2021/12/22 08:12:08;;;;;;;6.37;2.73;;;-5.50;49.30;;;;;;5089995;28;34176;-76
2021/12/22 08:14:36;;;;;;;4.40;2.90;;;-5.40;48.70;;;;;;5089584;28;34216;-76
2021/12/22 08:17:03;;;;;;;6.63;2.77;;;-5.40;48.30;;;;;;5123610;27;36646;-76
2021/12/22 08:19:29;;;;;;;3.10;2.37;;;-5.30;48.40;;;;;;5072648;28;34498;-76
2021/12/22 08:21:56;;;;;;;3.97;2.47;;;-5.30;48.20;;;;;;5122436;27;34249;-77
2021/12/22 08:24:23;;;;;;;3.37;2.23;;;-5.30;48.40;;;;;;5088829;28;34923;-76
2021/12/22 08:26:50;;;;;;;3.23;2.30;;;-5.20;48.50;;;;;;5122773;27;36078;-76
2021/12/22 08:29:16;;;;;;;3.60;2.43;;;-5.20;48.50;;;;;;5088527;28;34210;-76
2021/12/22 08:31:42;;;;;;;2.60;2.13;;;-5.10;48.70;;;;;;5106529;28;34207;-77
2021/12/22 08:34:10;;;;;;;3.03;2.60;;;-5.10;48.60;;;;;;5122418;27;34233;-77
2021/12/22 08:39:20;;;;;;;4.77;2.90;;;-5.00;48.20;;;;;;5091004;28;34249;-77
2021/12/22 08:41:48;;;;;;;4.90;2.67;;;-4.90;48.40;;;;;;5088656;28;34383;-77
2021/12/22 08:44:18;;;;;;;3.93;3.03;;;-4.80;48.50;;;;;;5122475;27;34296;-77
2021/12/22 08:46:49;;;;;;;3.87;2.67;;;-4.70;48.60;;;;;;5088100;28;35662;-77
2021/12/22 08:49:16;;;;;;;5.03;3.10;;;-4.70;48.40;;;;;;5104842;27;34125;-77
2021/12/22 08:51:42;;;;;;;5.83;3.17;;;-4.60;48.90;;;;;;5071052;28;34438;-77
2021/12/22 08:54:08;;;;;;;8.97;4.60;;;-4.50;49.40;;;;;;5122958;27;34700;-77
2021/12/22 08:56:35;;;;;;;7.20;4.60;;;-4.40;49.40;;;;;;5069827;28;36505;-77
2021/12/22 08:59:02;;;;;;;5.23;3.43;;;-4.20;49.40;;;;;;5121216;27;34225;-77
2021/12/22 09:01:29;;;;;;;6.57;4.17;;;-4.10;49.20;;;;;;5070363;28;34366;-77
2021/12/22 09:03:55;;;;;;;10.17;4.37;;;-4.00;49.20;;;;;;5121977;27;34528;-77
2021/12/22 09:06:21;;;;;;;8.83;3.97;;;-3.90;49.10;;;;;;5071095;28;36802;-77
2021/12/22 09:08:47;;;;;;;5.60;3.77;;;-3.70;49.20;;;;;;5105561;27;34146;-77
2021/12/22 09:11:14;;;;;;;11.00;4.60;;;-3.60;49.10;;;;;;5104209;28;34067;-77
2021/12/22 09:13:41;;;;;;;7.23;4.10;;;-3.50;48.90;;;;;;5121043;27;34044;-77
2021/12/22 09:16:10;;;;;;;6.88;4.88;;;-3.40;48.70;;;;;;5069187;28;36289;-77
2021/12/22 09:18:37;;;;;;;8.38;5.03;;;-3.20;48.60;;;;;;5120453;27;34215;-77
2021/12/22 09:21:04;;;;;;;9.73;5.50;;;-3.10;48.50;;;;;;5070264;28;34368;-77
2021/12/22 09:23:31;;;;;;;11.03;5.77;;;-3.00;48.30;;;;;;5087076;28;34305;-77
2021/12/22 09:25:57;;;;;;;7.97;5.40;;;-2.90;48.40;;;;;;5121312;27;35924;-77
2021/12/22 09:28:23;;;;;;;6.97;5.10;;;-2.70;48.60;;;;;;5120445;27;34270;-77
2021/12/22 09:30:49;;;;;;;6.72;4.93;;;-2.60;48.30;;;;;;5069663;28;34220;-77
2021/12/22 09:33:17;;;;;;;13.43;6.00;;;-2.50;48.20;;;;;;5102966;28;34282;-77
2021/12/22 09:35:45;;;;;;;8.15;4.53;;;-2.40;48.20;;;;;;5104262;28;34312;-77
2021/12/22 09:38:12;;;;;;;9.65;4.65;;;-2.20;48.20;;;;;;5120038;27;34234;-77
2021/12/22 09:40:38;;;;;;;6.05;4.13;;;-2.00;48.50;;;;;;5120857;27;34224;-77
2021/12/22 09:43:06;;;;;;;9.25;4.57;;;-1.90;47.90;;;;;;5120407;27;34347;-77
2021/12/22 09:45:35;;;;;;;8.45;5.00;;;-1.80;47.70;;;;;;5119680;27;36009;-77
2021/12/22 09:53:43;;;;;;;7.28;4.68;;;-1.30;47.70;;;;;;5117476;27;34440;-77
2021/12/22 09:56:10;;;;;;;10.10;5.68;;;-1.10;47.60;;;;;;5103869;28;34407;-77
2021/12/22 09:58:40;;;;;;;9.40;5.80;;;-0.90;47.50;;;;;;5119484;27;34285;-78
2021/12/22 10:01:06;;;;;;;11.23;5.95;;;-0.80;46.80;;;;;;5103883;28;34091;-78
2021/12/22 10:03:32;;;;;;;12.57;7.10;;;-0.70;47.00;;;;;;5120340;27;34040;-78
2021/12/22 10:05:58;;;;;;;9.23;6.10;;;-0.60;47.10;;;;;;5103572;28;34457;-78
2021/12/22 10:08:27;;;;;;;12.32;6.93;;;-0.50;47.10;;;;;;5103309;28;34283;-78
2021/12/22 10:11:12;;;;;;;8.85;5.55;;;-0.30;47.50;;;;;;5103875;28;34351;-78
2021/12/22 10:13:43;;;;;;;12.85;6.65;;;-0.20;47.20;;;;;;5085645;28;34856;-77
2021/12/22 10:16:20;;;;;;;11.13;7.18;;;0.00;47.10;;;;;;5119168;27;35950;-78
2021/12/22 10:18:46;;;;;;;14.48;8.05;;;0.10;46.50;;;;;;5085252;28;34263;-78
2021/12/22 10:21:21;;;;;;;11.70;7.65;;;0.10;46.40;;;;;;5085242;28;34230;-77
2021/12/22 10:26:35;;;;;;;14.18;7.47;;;0.20;46.70;;;;;;5103588;28;34576;-78
2021/12/22 10:29:05;;;;;;;10.63;5.80;;;0.20;47.10;;;;;;5068039;28;34303;-78
2021/12/22 10:31:44;;;;;;;11.82;5.97;;;0.30;47.40;;;;;;5086590;28;34345;-78
2021/12/22 10:34:14;;;;;;;15.07;6.43;;;0.40;47.20;;;;;;5086472;28;34176;-78
2021/12/22 10:36:51;;;;;;;13.73;7.13;;;0.50;47.30;;;;;;5070521;28;35798;-78
2021/12/22 10:39:21;;;;;;;12.98;7.90;;;0.60;47.40;;;;;;5088502;28;34517;-78
2021/12/22 10:41:49;;;;;;;13.50;6.68;;;0.80;47.40;;;;;;5088552;28;34166;-78
2021/12/22 10:44:15;;;;;;;9.18;5.40;;;0.90;47.40;;;;;;5072623;28;34510;-79
2021/12/22 10:46:41;;;;;;;9.25;5.22;;;1.00;47.20;;;;;;5089198;28;35526;-78
2021/12/22 10:49:18;;;;;;;7.65;5.10;;;1.20;47.10;;;;;;5071766;28;34242;-78
2021/12/22 10:51:55;;;;;;;7.88;4.88;;;1.30;46.80;;;;;;5090174;28;34277;-79
2021/12/22 10:54:32;;;;;;;10.38;5.55;;;1.40;46.90;;;;;;5088086;28;34118;-79
2021/12/22 10:56:59;;;;;;;8.50;5.15;;;1.60;46.60;;;;;;5071211;28;36799;-78
2021/12/22 10:59:25;;;;;;;10.57;6.43;;;1.70;46.60;;;;;;5070443;28;34240;-78
2021/12/22 11:02:05;;;;;;;11.48;6.70;;;1.90;46.50;;;;;;5105489;28;34067;-79
2021/12/22 11:04:33;;;;;;;11.43;7.00;;;1.90;46.00;;;;;;5086022;28;34518;-78
2021/12/22 11:07:22;;;;;;;13.48;7.55;;;1.90;46.40;;;;;;5085003;28;36405;-79
2021/12/22 11:09:49;;;;;;;12.18;7.45;;;2.00;46.10;;;;;;5084893;28;34375;-78
2021/12/22 11:12:17;;;;;;;13.48;7.95;;;2.10;46.80;;;;;;5084607;28;34454;-79
2021/12/22 11:14:47;;;;;;;11.55;7.82;;;2.30;46.80;;;;;;5085026;28;34445;-78
2021/12/22 11:17:15;;;;;;;14.43;8.77;;;2.40;46.50;;;;;;5084865;28;35580;-78
2021/12/22 11:20:04;;;;;;;17.20;9.20;;;2.50;46.40;;;;;;5084921;28;34374;-77
2021/12/22 11:22:46;;;;;;;15.07;8.35;;;2.60;45.20;;;;;;5118891;27;34574;-78
2021/12/22 11:25:13;;;;;;;12.13;8.18;;;2.60;45.70;;;;;;5069602;28;33959;-77
2021/12/22 11:27:39;;;;;;;11.70;7.28;;;2.70;46.10;;;;;;5102100;27;35510;-77
2021/12/22 11:30:07;;;;;;;10.60;7.07;;;2.70;46.00;;;;;;5068578;28;34344;-77
2021/12/22 11:32:33;;;;;;;10.00;6.60;;;2.70;46.00;;;;;;5107299;28;34185;-77
2021/12/22 11:35:03;;;;;;;9.73;7.10;;;2.70;45.90;;;;;;5088814;28;34096;-77
2021/12/22 11:37:30;;;;;;;9.38;6.40;;;2.80;45.90;;;;;;5122704;27;35583;-77
2021/12/22 11:39:58;;;;;;;11.82;6.45;;;2.80;45.90;;;;;;5106475;27;34115;-77
2021/12/22 11:42:30;;;;;;;8.25;6.25;;;2.90;46.10;;;;;;5072171;28;34440;-77
2021/12/22 11:45:10;;;;;;;10.48;5.97;;;2.90;45.90;;;;;;5090569;28;34160;-77
2021/12/22 11:47:38;;;;;;;8.20;5.90;;;3.00;46.10;;;;;;5122391;27;35671;-76
2021/12/22 11:50:06;;;;;;;13.05;6.05;;;3.10;46.30;;;;;;5071841;28;34487;-76
2021/12/22 11:52:36;;;;;;;10.93;6.35;;;3.10;46.60;;;;;;5106418;28;34418;-76
2021/12/22 11:55:11;;;;;;;9.48;5.57;;;3.10;45.60;;;;;;5088449;28;34190;-76
2021/12/22 11:57:38;;;;;;;9.38;5.88;;;3.10;45.40;;;;;;5122060;27;35551;-76
2021/12/22 12:00:21;;;;;;;9.85;6.13;;;3.20;46.00;;;;;;5105305;28;34256;-77
2021/12/22 12:02:48;;;;;;;10.00;6.47;;;3.20;45.40;;;;;;5105535;28;34432;-77
2021/12/22 12:05:25;;;;;;;12.25;5.78;;;3.30;45.90;;;;;;5123067;27;34336;-77
2021/12/22 12:07:54;;;;;;;7.45;5.55;;;3.30;45.70;;;;;;5073528;28;36059;-77
2021/12/22 12:10:54;;;;;;;7.35;5.43;;;3.40;46.00;;;;;;5123503;27;34168;-77
2021/12/22 12:13:45;;;;;;;9.32;6.15;;;3.40;45.20;;;;;;5122802;27;34190;-76
2021/12/22 12:22:00;;;;;;;8.30;5.85;;;3.50;46.40;;;;;;5105587;28;34378;-76
2021/12/22 12:24:44;;;;;;;7.82;5.45;;;3.60;45.70;;;;;;5105343;28;34101;-76
2021/12/22 12:27:35;;;;;;;8.45;5.38;;;3.60;44.30;;;;;;5073276;28;34275;-76
2021/12/22 12:30:06;;;;;;;8.55;5.60;;;3.60;44.90;;;;;;5088824;28;35712;-77
2021/12/22 12:32:55;;;;;;;7.68;5.28;;;3.70;46.00;;;;;;5089585;28;34112;-76
2021/12/22 12:35:23;;;;;;;10.35;5.97;;;3.80;44.90;;;;;;5071566;28;34498;-77
2021/12/22 12:38:12;;;;;;;8.10;5.20;;;3.90;46.00;;;;;;5088877;28;34214;-76
2021/12/22 12:41:11;;;;;;;8.18;5.72;;;4.00;45.20;;;;;;5072109;28;36372;-76
2021/12/22 12:43:47;;;;;;;9.65;4.97;;;4.00;44.00;;;;;;5086574;28;34303;-76
2021/12/22 12:46:38;;;;;;;8.27;5.38;;;4.10;44.70;;;;;;5088075;28;34202;-77
2021/12/22 12:49:26;;;;;;;8.45;5.47;;;4.10;44.50;;;;;;5072730;28;34455;-77
2021/12/22 12:51:56;;;;;;;7.97;4.88;;;4.20;44.60;;;;;;5084806;28;36086;-76
2021/12/22 12:54:33;;;;;;;7.72;5.22;;;4.20;45.50;;;;;;5070198;28;34096;-77
2021/12/22 12:57:19;;;;;;;8.80;5.30;;;4.10;45.20;;;;;;5103121;28;34283;-76
2021/12/22 12:59:49;;;;;;;7.55;5.57;;;4.10;44.40;;;;;;5105113;28;34208;-76
2021/12/22 13:02:26;;;;;;;9.65;5.35;;;4.10;45.50;;;;;;5086304;28;36257;-76
2021/12/22 13:05:03;;;;;;;7.72;5.40;;;4.10;45.00;;;;;;5069914;28;34222;-76
2021/12/22 13:07:31;;;;;;;8.48;6.20;;;4.10;45.00;;;;;;5087064;28;34252;-76
2021/12/22 13:10:03;;;;;;;7.80;5.28;;;4.10;45.60;;;;;;5088111;28;34348;-76
2021/12/22 13:12:46;;;;;;;11.15;5.65;;;4.00;45.60;;;;;;5104645;28;35801;-76
2021/12/22 13:18:03;;;;;;;8.98;5.97;;;3.90;45.80;;;;;;5088710;27;34445;-76
2021/12/22 13:20:37;;;;;;;8.10;5.10;;;3.90;46.60;;;;;;5087017;28;34040;-76
2021/12/22 13:23:06;;;;;;;9.35;5.65;;;3.80;45.70;;;;;;5104502;28;34409;-77